Time;durP1;ratioP1;P1;durP2;ratioP2;P2;SDS_P1;SDS_P2;PMS_P1;PMS_P2;Temp;Humidity;BMP_temperature;BMP_pressure;BME280_temperature;BME280_humidity;BME280_pressure;Samples;Min_cycle;Max_cycle;Signal;HPM_P1;HPM_P2
2021/12/24 00:00:34;;;;;;;12.45;4.47;;;;;;;6.96;100.00;99909.16;5073378;28;20389;-88
2021/12/24 00:03:00;;;;;;;9.63;4.55;;;;;;;6.82;100.00;99888.00;5091400;28;20052;-88
2021/12/24 00:05:28;;;;;;;13.52;5.60;;;;;;;6.88;100.00;99905.13;5089641;28;20054;-88
2021/12/24 00:07:55;;;;;;;11.35;4.43;;;;;;;6.95;100.00;99904.00;5086687;28;20048;-88
2021/12/24 00:10:22;;;;;;;11.90;4.25;;;;;;;7.10;100.00;99905.19;5090086;28;20058;-88
2021/12/24 00:12:58;;;;;;;15.32;6.00;;;;;;;7.22;100.00;99895.19;5090995;28;20105;-88
2021/12/24 00:36:48;;;;;;;16.33;5.22;;;;;;;6.61;100.00;99894.78;5082738;28;20060;-88
2021/12/24 00:39:15;;;;;;;11.90;4.18;;;;;;;6.85;100.00;99908.69;5069152;28;20051;-88
2021/12/24 00:41:41;;;;;;;11.27;4.47;;;;;;;6.91;100.00;99892.03;5066118;28;20497;-88
2021/12/24 00:44:08;;;;;;;14.32;5.43;;;;;;;6.84;100.00;99899.19;5069418;28;20580;-88
2021/12/24 00:46:37;;;;;;;16.13;5.45;;;;;;;6.88;100.00;99892.13;5076034;28;20066;-88
2021/12/24 00:49:05;;;;;;;12.10;4.20;;;;;;;6.91;100.00;99905.88;5070814;28;20478;-88
2021/12/24 00:51:53;;;;;;;8.57;3.22;;;;;;;6.79;100.00;99885.50;5076188;28;20047;-88
2021/12/24 00:57:04;;;;;;;12.77;3.90;;;;;;;6.92;100.00;99899.75;5086289;28;20048;-89
2021/12/24 00:59:31;;;;;;;12.07;4.53;;;;;;;6.73;100.00;99915.19;5085612;28;20052;-88
2021/12/24 01:02:03;;;;;;;12.45;4.35;;;;;;;6.73;100.00;99906.50;5076118;28;20676;-88
2021/12/24 01:04:31;;;;;;;14.27;4.65;;;;;;;6.81;100.00;99914.91;5103160;28;20128;-89
2021/12/24 01:06:58;;;;;;;12.07;4.63;;;;;;;6.89;100.00;99928.50;5092624;28;20058;-89
2021/12/24 01:09:24;;;;;;;14.35;3.50;;;;;;;6.95;100.00;99914.41;5063415;28;20048;-89
2021/12/24 01:11:51;;;;;;;11.15;4.15;;;;;;;6.92;100.00;99907.56;5075901;28;20404;-89
2021/12/24 01:14:20;;;;;;;11.65;4.38;;;;;;;6.89;100.00;99912.91;5098424;28;20834;-88
2021/12/24 01:17:01;;;;;;;11.52;4.07;;;;;;;6.91;100.00;99931.91;5083216;28;20055;-88
2021/12/24 01:19:28;;;;;;;12.90;4.60;;;;;;;6.95;100.00;99933.47;5083301;28;20045;-89
2021/12/24 01:22:27;;;;;;;9.80;3.67;;;;;;;7.02;100.00;99916.72;5067227;28;20050;-88
2021/12/24 01:24:59;;;;;;;13.70;4.85;;;;;;;6.83;100.00;99934.78;5082964;28;20093;-88
2021/12/24 01:38:23;;;;;;;12.07;4.47;;;;;;;6.33;100.00;99933.88;5087054;28;20052;-88
2021/12/24 01:41:06;;;;;;;11.38;3.80;;;;;;;6.11;100.00;99924.19;5084011;28;20074;-88
2021/12/24 01:43:33;;;;;;;11.48;3.53;;;;;;;6.35;100.00;99939.88;5100401;28;20039;-87
2021/12/24 01:46:01;;;;;;;14.18;3.47;;;;;;;6.17;100.00;99908.38;5101889;27;20052;-87
2021/12/24 01:48:28;;;;;;;9.07;3.08;;;;;;;6.26;100.00;99925.44;5079905;28;20398;-87
2021/12/24 01:50:55;;;;;;;9.63;2.78;;;;;;;6.50;100.00;99941.09;5065315;28;20150;-87
2021/12/24 01:53:24;;;;;;;10.18;2.72;;;;;;;6.23;100.00;99910.78;5084070;28;20048;-86
2021/12/24 01:55:52;;;;;;;9.60;2.60;;;;;;;6.43;100.00;99938.72;5063636;28;20135;-86
2021/12/24 01:58:25;;;;;;;13.73;2.67;;;;;;;6.57;100.00;99942.59;5070435;28;20135;-87
2021/12/24 02:00:55;;;;;;;9.50;2.67;;;;;;;6.43;100.00;99928.31;5063581;28;20521;-86
2021/12/24 02:03:22;;;;;;;13.85;3.17;;;;;;;6.47;100.00;99924.72;5066181;28;20421;-87
2021/12/24 02:05:50;;;;;;;20.88;4.53;;;;;;;6.48;100.00;99938.59;5067299;28;20047;-87
2021/12/24 02:08:17;;;;;;;9.85;2.95;;;;;;;6.38;100.00;99935.44;5086399;28;20119;-87
2021/12/24 02:10:44;;;;;;;10.73;2.78;;;;;;;6.68;100.00;99945.72;5066311;28;20059;-88
2021/12/24 02:13:13;;;;;;;11.25;2.92;;;;;;;6.59;100.00;99941.66;5097885;28;20051;-87
2021/12/24 02:16:08;;;;;;;14.40;2.95;;;;;;;6.76;100.00;99951.47;5068891;28;20054;-87
2021/12/24 02:29:42;;;;;;;10.63;2.38;;;;;;;7.22;100.00;99944.69;5074068;28;20044;-88
2021/12/24 02:32:08;;;;;;;12.65;2.45;;;;;;;6.90;100.00;99911.97;5065372;28;20127;-87
2021/12/24 02:34:35;;;;;;;10.27;2.20;;;;;;;7.33;100.00;99938.19;5084498;28;20468;-88
2021/12/24 02:37:03;;;;;;;12.68;2.20;;;;;;;7.11;100.00;99897.34;5062305;28;20063;-87
2021/12/24 02:39:30;;;;;;;8.32;2.10;;;;;;;7.48;100.00;99973.25;5089961;28;20048;-87
2021/12/24 02:42:08;;;;;;;7.05;1.98;;;;;;;7.58;100.00;99964.22;5079833;28;20048;-87
2021/12/24 02:44:35;;;;;;;9.73;1.85;;;;;;;7.52;100.00;99957.44;5066507;28;20056;-87
2021/12/24 02:55:10;;;;;;;12.68;2.28;;;;;;;7.58;100.00;99977.22;5089175;28;20041;-87
2021/12/24 02:57:38;;;;;;;9.50;1.90;;;;;;;7.53;100.00;99980.00;5066065;28;20055;-87
2021/12/24 03:00:15;;;;;;;8.02;2.47;;;;;;;7.42;100.00;99950.91;5063036;28;20052;-87
2021/12/24 03:02:46;;;;;;;5.78;2.40;;;;;;;7.51;100.00;99976.59;5070650;28;20052;-87
2021/12/24 03:05:16;;;;;;;9.00;1.70;;;;;;;7.45;100.00;99973.38;5068429;28;20051;-87
2021/12/24 03:07:43;;;;;;;5.85;1.35;;;;;;;7.56;100.00;99973.81;5072295;28;20498;-87
2021/12/24 03:10:16;;;;;;;4.57;1.50;;;;;;;7.55;100.00;99956.50;5068206;28;20051;-87
2021/12/24 03:12:45;;;;;;;8.75;1.90;;;;;;;7.72;100.00;99977.56;5097871;28;20477;-88
2021/12/24 03:15:15;;;;;;;7.35;2.80;;;;;;;7.43;100.00;99967.38;5087101;28;20050;-88
2021/12/24 03:17:47;;;;;;;9.52;1.70;;;;;;;7.39;100.00;99977.06;5071980;28;20047;-87
2021/12/24 03:20:14;;;;;;;8.30;2.15;;;;;;;7.31;100.00;99971.25;5062671;28;20054;-87
2021/12/24 03:25:10;;;;;;;11.77;2.22;;;;;;;7.21;100.00;99974.22;5080532;28;20516;-87
2021/12/24 03:27:37;;;;;;;7.25;1.90;;;;;;;7.20;100.00;99974.25;5065710;28;20048;-87
2021/12/24 03:30:05;;;;;;;6.97;1.85;;;;;;;7.31;100.00;99992.97;5080439;28;20051;-87
2021/12/24 03:32:32;;;;;;;9.95;2.38;;;;;;;7.19;100.00;99983.00;5064433;28;20401;-87
2021/12/24 03:34:59;;;;;;;6.97;1.92;;;;;;;7.04;100.00;99973.94;5066827;28;20055;-87
2021/12/24 03:37:25;;;;;;;11.57;1.92;;;;;;;6.78;100.00;99954.91;5065538;28;20040;-88
2021/12/24 03:39:52;;;;;;;9.88;2.42;;;;;;;6.98;100.00;99979.38;5082800;28;20078;-88
2021/12/24 03:42:19;;;;;;;12.18;2.33;;;;;;;7.07;100.00;99992.06;5063905;28;20048;-87
2021/12/24 03:44:50;;;;;;;15.98;2.25;;;;;;;7.22;100.00;99985.47;5070211;28;20444;-87
2021/12/24 03:47:19;;;;;;;12.02;2.55;;;;;;;7.33;100.00;99990.28;5066055;28;20181;-87
2021/12/24 03:54:57;;;;;;;9.32;1.67;;;;;;;7.14;100.00;100010.94;5082264;28;20045;-88
2021/12/24 03:57:34;;;;;;;8.23;2.17;;;;;;;7.27;100.00;100024.38;5082482;28;20067;-88
2021/12/24 04:00:17;;;;;;;9.30;1.73;;;;;;;7.44;100.00;100016.81;5084426;28;20050;-87
2021/12/24 04:02:45;;;;;;;13.30;2.17;;;;;;;7.45;100.00;100021.09;5084918;28;20398;-87
2021/12/24 04:05:14;;;;;;;14.07;3.40;;;;;;;7.18;100.00;100017.72;5080167;28;20049;-88
2021/12/24 04:07:41;;;;;;;9.95;3.38;;;;;;;7.15;100.00;100007.41;5084324;28;20477;-86
2021/12/24 04:10:51;;;;;;;13.98;2.50;;;;;;;7.10;100.00;100006.72;5069034;28;20050;-87
2021/12/24 04:12:58;;;;;;;14.75;2.95;;;;;;;6.84;100.00;100019.72;5077166;28;20374;-87
2021/12/24 04:15:25;;;;;;;9.23;2.47;;;;;;;7.01;100.00;100016.56;5073364;28;20075;-87
2021/12/24 04:17:52;;;;;;;6.82;1.70;;;;;;;6.79;100.00;100021.63;5070332;28;20417;-88
2021/12/24 04:25:49;;;;;;;15.60;2.60;;;;;;;7.01;100.00;100026.09;5085772;28;20050;-88
2021/12/24 04:28:17;;;;;;;14.80;2.20;;;;;;;6.71;100.00;100015.84;5068485;28;20102;-88
2021/12/24 04:30:49;;;;;;;11.43;2.47;;;;;;;6.78;100.00;100030.34;5086392;28;20052;-88
2021/12/24 04:33:31;;;;;;;6.50;1.67;;;;;;;7.06;100.00;100031.16;5069808;28;20036;-88
2021/12/24 04:36:18;;;;;;;5.93;1.60;;;;;;;6.82;100.00;100033.72;5111661;27;20046;-88
2021/12/24 05:03:08;;;;;;;6.55;1.52;;;;;;;6.99;100.00;100060.03;5086622;28;20052;-88
2021/12/24 05:10:40;;;;;;;7.88;1.85;;;;;;;6.94;100.00;100061.06;5085742;28;20044;-88
2021/12/24 05:13:09;;;;;;;8.32;1.92;;;;;;;7.04;100.00;100072.88;5089439;28;20048;-87
2021/12/24 05:15:38;;;;;;;10.65;1.95;;;;;;;6.86;100.00;100068.28;5083582;28;20052;-86
2021/12/24 05:23:29;;;;;;;11.63;1.70;;;;;;;7.09;100.00;100070.97;5085784;28;20044;-86
2021/12/24 05:25:56;;;;;;;8.48;1.80;;;;;;;6.91;100.00;100075.03;5069808;28;20052;-87
2021/12/24 05:28:23;;;;;;;8.02;1.85;;;;;;;6.58;100.00;100072.59;5072240;28;20086;-88
2021/12/24 05:30:50;;;;;;;8.82;1.80;;;;;;;7.00;100.00;100079.94;5098459;28;20052;-89
2021/12/24 05:33:16;;;;;;;11.77;2.60;;;;;;;6.77;100.00;100069.44;5086878;28;20047;-88
2021/12/24 05:35:47;;;;;;;8.23;1.50;;;;;;;6.87;100.00;100073.44;5070098;28;20048;-88
2021/12/24 05:38:15;;;;;;;8.98;1.90;;;;;;;6.57;100.00;100083.06;5072989;28;20051;-89
2021/12/24 05:40:42;;;;;;;10.80;2.00;;;;;;;6.80;100.00;100087.56;5065968;28;20469;-89
2021/12/24 05:43:10;;;;;;;7.85;1.50;;;;;;;6.71;100.00;100075.69;5091980;28;20098;-88
2021/12/24 05:45:36;;;;;;;9.95;1.98;;;;;;;6.86;100.00;100083.91;5085074;28;20406;-88
2021/12/24 05:48:04;;;;;;;16.58;2.65;;;;;;;6.84;100.00;100079.59;5086987;28;20044;-89
2021/12/24 05:50:31;;;;;;;5.88;1.63;;;;;;;6.99;100.00;100086.06;5067424;28;20051;-88
2021/12/24 05:52:57;;;;;;;6.90;2.22;;;;;;;7.03;100.00;100085.03;5086128;28;20040;-88
2021/12/24 05:55:24;;;;;;;8.52;1.90;;;;;;;6.77;100.00;100091.09;5069139;28;20052;-88
2021/12/24 05:57:51;;;;;;;5.93;1.50;;;;;;;6.98;100.00;100092.16;5083145;28;20047;-89
2021/12/24 06:00:21;;;;;;;6.88;1.48;;;;;;;6.87;100.00;100078.66;5103220;28;20049;-88
2021/12/24 06:02:48;;;;;;;6.28;1.30;;;;;;;6.98;100.00;100099.94;5084146;28;20048;-88
2021/12/24 06:05:15;;;;;;;8.02;1.90;;;;;;;6.63;100.00;100104.53;5100824;28;20050;-88
2021/12/24 06:07:42;;;;;;;11.35;1.80;;;;;;;6.47;100.00;100105.91;5068325;28;20052;-90
2021/12/24 06:10:09;;;;;;;7.15;2.53;;;;;;;6.75;100.00;100118.91;5082557;28;20474;-89
2021/12/24 06:12:36;;;;;;;8.13;1.50;;;;;;;6.41;100.00;100101.75;5070999;28;20044;-89
2021/12/24 06:15:06;;;;;;;6.60;1.77;;;;;;;6.80;100.00;100126.59;5088631;28;20055;-89
2021/12/24 06:17:36;;;;;;;5.82;1.55;;;;;;;6.49;100.00;100111.91;5071768;28;20127;-89
2021/12/24 06:20:06;;;;;;;5.53;1.38;;;;;;;6.58;100.00;100118.59;5082551;28;20132;-89
2021/12/24 06:22:33;;;;;;;9.38;2.05;;;;;;;6.55;100.00;100127.34;5076529;28;20040;-89
2021/12/24 06:25:02;;;;;;;9.80;1.77;;;;;;;6.52;100.00;100087.59;5086245;28;20052;-89
2021/12/24 06:27:30;;;;;;;7.63;2.20;;;;;;;6.75;100.00;100131.09;5071400;28;20672;-89
2021/12/24 06:29:56;;;;;;;5.90;1.48;;;;;;;6.67;100.00;100130.47;5063201;28;20048;-89
2021/12/24 06:32:25;;;;;;;6.18;1.50;;;;;;;6.62;100.00;100126.25;5066010;28;20520;-89
2021/12/24 06:34:52;;;;;;;6.28;1.65;;;;;;;6.63;100.00;100127.09;5064681;28;20052;-89
2021/12/24 06:37:19;;;;;;;8.25;1.70;;;;;;;6.73;100.00;100127.66;5088554;28;20091;-89
2021/12/24 06:39:46;;;;;;;12.25;1.88;;;;;;;6.36;100.00;100132.25;5090512;28;20051;-89
2021/12/24 06:42:13;;;;;;;4.88;1.65;;;;;;;6.51;100.00;100141.31;5073833;28;20044;-89
2021/12/24 06:44:40;;;;;;;4.20;1.50;;;;;;;6.77;100.00;100131.88;5063702;28;20497;-88
2021/12/24 06:47:07;;;;;;;8.70;1.92;;;;;;;6.64;100.00;100137.47;5061598;28;20070;-88
2021/12/24 06:49:34;;;;;;;7.40;1.85;;;;;;;6.88;100.00;100139.34;5080624;28;20555;-88
2021/12/24 06:52:01;;;;;;;8.50;1.30;;;;;;;6.72;100.00;100134.63;5104678;28;20069;-89
2021/12/24 06:54:29;;;;;;;6.72;1.60;;;;;;;6.57;100.00;100128.16;5069024;28;20052;-89
2021/12/24 06:56:57;;;;;;;7.25;2.13;;;;;;;6.45;100.00;100129.38;5065641;28;20054;-89
2021/12/24 06:59:24;;;;;;;3.83;1.48;;;;;;;6.58;100.00;100129.00;5083414;28;20059;-88
2021/12/24 07:01:51;;;;;;;9.55;1.90;;;;;;;6.18;100.00;100150.97;5060276;28;20048;-89
2021/12/24 07:04:20;;;;;;;9.93;1.75;;;;;;;6.37;100.00;100146.09;5096843;28;20106;-88
2021/12/24 07:06:46;;;;;;;8.02;1.92;;;;;;;6.23;100.00;100147.38;5102389;28;20051;-89
2021/12/24 07:09:15;;;;;;;12.38;2.38;;;;;;;6.39;100.00;100144.28;5057605;28;20059;-88
2021/12/24 07:11:42;;;;;;;7.40;1.85;;;;;;;6.41;100.00;100134.69;5092750;28;20048;-89
2021/12/24 07:14:10;;;;;;;6.00;1.63;;;;;;;6.46;100.00;100156.22;5102320;28;20040;-89
2021/12/24 07:16:37;;;;;;;6.90;1.58;;;;;;;6.46;100.00;100154.47;5073133;28;20052;-88
2021/12/24 07:19:04;;;;;;;5.38;1.60;;;;;;;6.44;100.00;100166.66;5062908;28;20387;-89
2021/12/24 07:21:31;;;;;;;7.95;1.52;;;;;;;6.39;100.00;100165.09;5100055;28;20050;-89
2021/12/24 07:23:57;;;;;;;7.80;1.63;;;;;;;6.35;100.00;100145.28;5062524;28;20398;-89
2021/12/24 07:26:24;;;;;;;9.25;1.92;;;;;;;6.15;100.00;100185.72;5067504;28;20387;-89
2021/12/24 07:28:51;;;;;;;12.85;1.83;;;;;;;5.95;100.00;100175.84;5094531;28;20142;-90
2021/12/24 07:31:18;;;;;;;9.40;1.90;;;;;;;5.74;100.00;100171.22;5066128;28;20048;-89
2021/12/24 07:33:45;;;;;;;7.70;1.65;;;;;;;5.89;100.00;100165.59;5079497;28;20117;-89
2021/12/24 07:36:11;;;;;;;6.88;1.42;;;;;;;5.92;100.00;100175.94;5063042;28;20048;-89
2021/12/24 07:38:39;;;;;;;7.60;1.50;;;;;;;5.91;100.00;100163.81;5087573;28;20388;-91
2021/12/24 07:41:06;;;;;;;8.75;1.98;;;;;;;6.04;100.00;100182.56;5065995;28;20048;-89
2021/12/24 07:43:33;;;;;;;5.30;1.60;;;;;;;5.98;100.00;100154.97;5073161;28;20047;-88
2021/12/24 07:46:00;;;;;;;5.07;1.40;;;;;;;6.29;100.00;100177.53;5083090;28;20048;-89
2021/12/24 07:48:29;;;;;;;7.88;1.73;;;;;;;6.20;100.00;100165.66;5073764;28;20402;-89
2021/12/24 07:53:25;;;;;;;2.88;1.20;;;;;;;6.39;100.00;100165.09;5096296;28;20075;-87
2021/12/24 07:55:55;;;;;;;5.47;1.48;;;;;;;6.49;100.00;100182.13;5072370;28;20488;-87
2021/12/24 07:58:22;;;;;;;5.70;1.67;;;;;;;6.38;100.00;100184.22;5077189;28;20093;-87
2021/12/24 08:00:50;;;;;;;5.75;1.40;;;;;;;6.58;100.00;100178.41;5078361;28;20467;-87
2021/12/24 08:03:18;;;;;;;8.43;1.98;;;;;;;6.04;100.00;100196.41;5078502;28;20098;-89
2021/12/24 08:05:48;;;;;;;4.35;1.30;;;;;;;6.41;100.00;100194.50;5090266;28;20052;-88
2021/12/24 08:08:15;;;;;;;6.13;1.83;;;;;;;6.42;100.00;100185.81;5084382;28;20048;-88
2021/12/24 08:10:42;;;;;;;8.30;1.40;;;;;;;6.45;100.00;100204.78;5077433;28;20052;-88
2021/12/24 08:13:09;;;;;;;5.90;1.60;;;;;;;6.14;100.00;100204.78;5077109;28;20070;-88
2021/12/24 08:15:36;;;;;;;8.20;1.80;;;;;;;6.17;100.00;100209.06;5077044;28;20055;-87
2021/12/24 08:18:08;;;;;;;6.20;2.08;;;;;;;6.24;100.00;100211.44;5084781;28;20044;-88
2021/12/24 08:20:35;;;;;;;5.03;1.42;;;;;;;6.23;100.00;100222.75;5072867;28;20052;-88
2021/12/24 08:23:01;;;;;;;6.38;1.67;;;;;;;6.29;100.00;100228.69;5057497;28;20056;-88
2021/12/24 08:25:28;;;;;;;8.73;1.88;;;;;;;6.18;100.00;100228.94;5057660;28;20494;-88
2021/12/24 08:27:55;;;;;;;8.95;2.10;;;;;;;6.31;100.00;100229.50;5081667;28;20703;-89
2021/12/24 08:30:22;;;;;;;10.15;2.28;;;;;;;6.04;100.00;100239.75;5084142;28;20493;-89
2021/12/24 08:32:48;;;;;;;11.43;2.03;;;;;;;6.23;100.00;100234.88;5114400;28;20134;-89
2021/12/24 08:35:20;;;;;;;17.50;2.80;;;;;;;6.20;100.00;100254.03;5089854;28;20043;-89
2021/12/24 08:37:48;;;;;;;11.20;1.98;;;;;;;6.00;100.00;100243.31;5076334;28;20548;-89
2021/12/24 08:40:15;;;;;;;10.98;1.90;;;;;;;6.12;100.00;100255.97;5071092;28;20079;-89
2021/12/24 08:42:42;;;;;;;11.80;2.63;;;;;;;6.17;100.00;100246.31;5066936;28;20131;-89
2021/12/24 08:45:09;;;;;;;12.18;3.58;;;;;;;6.27;100.00;100252.97;5072224;28;20045;-88
2021/12/24 08:47:37;;;;;;;12.88;2.58;;;;;;;6.26;100.00;100258.19;5075765;28;20048;-89
2021/12/24 08:50:06;;;;;;;15.38;3.63;;;;;;;5.99;100.00;100259.81;5085392;28;20063;-89
2021/12/24 08:52:33;;;;;;;12.18;3.72;;;;;;;6.20;100.00;100248.84;5101356;28;20049;-88
2021/12/24 08:55:00;;;;;;;14.35;3.30;;;;;;;6.29;100.00;100252.09;5074456;28;20048;-89
2021/12/24 08:57:26;;;;;;;15.25;3.05;;;;;;;6.17;100.00;100256.69;5074986;28;20044;-88
2021/12/24 08:59:53;;;;;;;13.02;2.75;;;;;;;6.52;100.00;100280.88;5076654;28;20075;-89
2021/12/24 09:02:20;;;;;;;16.75;3.50;;;;;;;5.86;100.00;100273.09;5077257;28;20051;-88
2021/12/24 09:04:47;;;;;;;19.42;3.75;;;;;;;5.78;100.00;100290.59;5102934;28;20055;-88
2021/12/24 09:07:14;;;;;;;20.67;4.32;;;;;;;5.98;100.00;100289.28;5076164;28;20047;-88
2021/12/24 09:09:41;;;;;;;18.20;3.10;;;;;;;5.67;100.00;100300.41;5093697;28;20404;-88
2021/12/24 09:12:08;;;;;;;19.42;4.40;;;;;;;5.63;100.00;100314.34;5078756;28;20055;-87
2021/12/24 09:14:35;;;;;;;17.73;4.88;;;;;;;5.60;100.00;100298.84;5066434;28;20480;-88
2021/12/24 09:17:02;;;;;;;15.55;3.42;;;;;;;5.48;100.00;100310.38;5065059;28;20059;-87
2021/12/24 09:19:31;;;;;;;18.85;4.68;;;;;;;5.60;100.00;100311.84;5082673;28;20048;-86
2021/12/24 09:21:58;;;;;;;28.33;4.07;;;;;;;5.87;100.00;100279.97;5068514;28;20046;-87
2021/12/24 09:24:27;;;;;;;19.27;3.95;;;;;;;5.64;100.00;100296.13;5077468;28;20273;-87
2021/12/24 09:26:57;;;;;;;16.40;3.50;;;;;;;5.82;100.00;100307.81;5074129;28;20062;-88
2021/12/24 09:29:25;;;;;;;13.68;3.38;;;;;;;6.18;100.00;100288.75;5090249;28;20055;-88
2021/12/24 09:31:52;;;;;;;14.98;3.47;;;;;;;6.14;100.00;100276.72;5093750;28;20489;-88
2021/12/24 09:34:19;;;;;;;16.65;3.72;;;;;;;5.99;100.00;100278.84;5093698;28;20051;-88
2021/12/24 09:36:46;;;;;;;22.45;4.20;;;;;;;6.39;100.00;100288.19;5088935;28;20047;-88
2021/12/24 09:39:14;;;;;;;30.55;4.28;;;;;;;6.17;100.00;100284.47;5077407;28;20543;-88
2021/12/24 09:41:41;;;;;;;17.48;3.70;;;;;;;6.05;100.00;100311.63;5066594;28;20055;-88
2021/12/24 09:44:08;;;;;;;19.20;3.70;;;;;;;5.99;100.00;100312.63;5089607;28;20072;-88
2021/12/24 09:46:40;;;;;;;18.27;3.85;;;;;;;6.27;100.00;100319.72;5060542;28;20056;-88
2021/12/24 09:49:08;;;;;;;14.80;2.55;;;;;;;6.32;100.00;100315.25;5086867;28;20097;-88
2021/12/24 09:51:38;;;;;;;15.43;3.10;;;;;;;6.10;100.00;100311.50;5082045;28;20103;-89
2021/12/24 09:54:14;;;;;;;16.38;4.28;;;;;;;6.40;100.00;100333.25;5088945;28;20047;-88
2021/12/24 09:56:41;;;;;;;22.77;3.83;;;;;;;6.25;100.00;100321.47;5096934;28;20056;-89
2021/12/24 09:59:09;;;;;;;16.13;2.85;;;;;;;6.29;100.00;100330.09;5071256;28;20070;-89
2021/12/24 10:01:40;;;;;;;13.18;3.10;;;;;;;6.30;100.00;100347.38;5074590;28;20409;-89
2021/12/24 10:04:11;;;;;;;13.52;2.92;;;;;;;6.01;100.00;100328.19;5070861;28;20052;-89
2021/12/24 10:06:47;;;;;;;14.68;2.47;;;;;;;6.47;100.00;100332.19;5075025;28;20052;-89
2021/12/24 10:09:16;;;;;;;12.35;2.58;;;;;;;6.57;100.00;100322.38;5070467;28;20048;-89
2021/12/24 10:11:51;;;;;;;19.65;3.40;;;;;;;6.29;100.00;100340.47;5083442;28;20055;-88
2021/12/24 10:14:21;;;;;;;15.38;3.17;;;;;;;6.51;100.00;100344.19;5067349;28;20074;-89
2021/12/24 10:16:50;;;;;;;16.20;4.03;;;;;;;6.73;100.00;100341.88;5081904;28;20055;-89
2021/12/24 10:19:19;;;;;;;15.20;2.70;;;;;;;6.71;100.00;100338.47;5087049;28;20665;-87
2021/12/24 10:21:55;;;;;;;20.08;3.10;;;;;;;6.32;100.00;100319.59;5070875;28;20067;-89
2021/12/24 10:24:23;;;;;;;17.00;3.45;;;;;;;6.41;100.00;100342.72;5093045;28;20051;-89
2021/12/24 10:26:52;;;;;;;14.68;3.92;;;;;;;6.41;100.00;100361.81;5072507;28;20059;-90
2021/12/24 10:29:33;;;;;;;15.18;3.20;;;;;;;6.66;100.00;100361.16;5090813;28;20051;-89
2021/12/24 10:32:15;;;;;;;17.52;3.42;;;;;;;6.39;100.00;100354.94;5088842;28;20078;-89
2021/12/24 10:34:43;;;;;;;16.70;2.85;;;;;;;6.32;100.00;100372.47;5091682;28;20474;-89
2021/12/24 10:37:22;;;;;;;13.55;3.15;;;;;;;6.50;100.00;100373.72;5092117;28;20044;-89
2021/12/24 10:39:55;;;;;;;12.73;2.63;;;;;;;6.53;100.00;100357.16;5090047;28;20055;-89
2021/12/24 10:42:31;;;;;;;13.77;2.70;;;;;;;6.51;97.38;100374.56;5073735;28;20044;-90
2021/12/24 10:45:01;;;;;;;14.90;3.13;;;;;;;6.93;100.00;100377.75;5074593;28;20048;-89
2021/12/24 10:47:35;;;;;;;12.77;3.40;;;;;;;6.93;98.33;100379.50;5084762;28;20069;-89
2021/12/24 10:50:48;;;;;;;18.15;3.67;;;;;;;6.73;95.49;100377.44;5074560;28;20098;-90
2021/12/24 10:53:19;;;;;;;16.40;3.03;;;;;;;6.38;97.06;100372.28;5085709;28;20080;-89
2021/12/24 10:55:52;;;;;;;18.42;4.32;;;;;;;6.34;91.23;100388.00;5065580;28;20048;-89
2021/12/24 10:58:22;;;;;;;23.10;4.25;;;;;;;6.26;85.22;100376.03;5073120;28;20071;-89
2021/12/24 11:01:00;;;;;;;17.08;2.95;;;;;;;6.30;86.93;100374.22;5088765;28;20052;-90
2021/12/24 11:03:32;;;;;;;8.70;2.75;;;;;;;6.37;86.89;100364.53;5086915;28;20474;-89
2021/12/24 11:06:11;;;;;;;14.98;2.78;;;;;;;6.27;83.64;100385.56;5084384;28;20062;-89
2021/12/24 11:08:38;;;;;;;15.73;2.70;;;;;;;6.34;84.55;100396.66;5090409;28;20145;-91
2021/12/24 11:11:07;;;;;;;13.80;2.63;;;;;;;6.71;82.29;100390.50;5067066;28;20059;-90
2021/12/24 11:13:39;;;;;;;9.15;2.17;;;;;;;6.83;82.53;100384.09;5083554;28;20043;-90
2021/12/24 11:16:08;;;;;;;17.70;3.05;;;;;;;6.68;82.06;100369.75;5071507;28;20056;-89
2021/12/24 11:18:41;;;;;;;12.55;2.88;;;;;;;6.53;81.19;100386.63;5069633;28;20101;-90
2021/12/24 11:21:10;;;;;;;;;;;;;;;6.53;79.17;100399.63;5081677;28;20690;-90
2021/12/24 11:23:41;;;;;;;11.77;3.17;;;;;;;6.51;81.72;100392.78;5073143;28;19923;-90
2021/12/24 11:26:13;;;;;;;17.02;2.90;;;;;;;6.75;74.19;100381.72;5067952;28;20048;-88
2021/12/24 11:28:42;;;;;;;11.67;2.50;;;;;;;6.54;73.55;100380.53;5081158;28;20055;-89
2021/12/24 11:31:21;;;;;;;13.85;2.25;;;;;;;6.65;74.85;100386.28;5070506;28;20048;-88
2021/12/24 11:33:51;;;;;;;14.40;3.03;;;;;;;6.79;74.65;100372.91;5089330;28;20389;-89
2021/12/24 11:36:22;;;;;;;11.55;2.30;;;;;;;6.49;71.72;100387.59;5066646;28;20059;-88
2021/12/24 11:38:54;;;;;;;14.65;3.33;;;;;;;6.59;73.30;100388.22;5078198;28;20067;-87
2021/12/24 11:41:25;;;;;;;16.55;2.75;;;;;;;6.81;73.12;100385.88;5086810;28;20058;-87
2021/12/24 11:43:54;;;;;;;13.70;2.85;;;;;;;6.54;72.75;100384.91;5073449;28;20054;-88
2021/12/24 11:46:24;;;;;;;11.63;2.30;;;;;;;7.02;75.44;100387.03;5074566;28;20055;-88
2021/12/24 11:48:52;;;;;;;8.55;2.15;;;;;;;6.83;70.63;100384.97;5074087;28;20420;-90
2021/12/24 11:51:30;;;;;;;11.05;2.58;;;;;;;6.86;71.92;100377.97;5073321;28;20066;-90
2021/12/24 11:54:00;;;;;;;14.40;3.42;;;;;;;6.62;69.92;100373.41;5054171;28;20071;-90
2021/12/24 11:56:27;;;;;;;13.02;2.60;;;;;;;6.86;67.58;100411.78;5090492;28;20052;-90
2021/12/24 11:58:56;;;;;;;10.45;3.30;;;;;;;6.73;65.03;100386.09;5100162;28;20052;-86
2021/12/24 12:01:27;;;;;;;12.95;3.15;;;;;;;6.47;63.86;100394.59;5074039;28;20419;-87
2021/12/24 12:03:58;;;;;;;11.85;3.35;;;;;;;6.71;65.57;100390.50;5073470;28;20074;-88
2021/12/24 12:06:25;;;;;;;15.68;2.70;;;;;;;6.80;65.46;100394.59;5073292;28;20070;-87
2021/12/24 12:09:00;;;;;;;21.70;3.22;;;;;;;6.45;64.54;100379.03;5070858;28;20051;-89
2021/12/24 12:11:34;;;;;;;14.10;2.92;;;;;;;6.65;64.36;100360.28;5092265;28;20056;-90
2021/12/24 12:14:10;;;;;;;13.88;2.65;;;;;;;6.91;63.63;100396.91;5087215;28;20041;-89
2021/12/24 12:16:43;;;;;;;10.45;3.00;;;;;;;6.70;60.96;100387.94;5071345;28;20405;-90
2021/12/24 12:19:20;;;;;;;11.80;3.00;;;;;;;6.60;61.72;100393.38;5088741;28;20083;-90
2021/12/24 12:22:44;;;;;;;9.82;3.67;;;;;;;6.56;62.39;100396.09;5088072;28;20048;-90
2021/12/24 12:25:06;;;;;;;11.27;2.30;;;;;;;6.41;62.70;100393.03;5071936;28;20056;-88
2021/12/24 12:27:44;;;;;;;8.73;2.60;;;;;;;6.27;61.43;100403.75;5074477;28;20048;-91
2021/12/24 12:30:16;;;;;;;12.32;2.60;;;;;;;6.39;62.44;100400.00;5091427;28;20066;-90
2021/12/24 12:32:43;;;;;;;16.88;3.05;;;;;;;6.16;61.04;100392.78;5094248;28;20131;-90
2021/12/24 12:35:11;;;;;;;13.63;2.90;;;;;;;6.15;59.67;100377.22;5094709;28;20055;-91
2021/12/24 12:37:50;;;;;;;17.88;3.10;;;;;;;6.27;59.94;100405.53;5078281;28;20048;-91
2021/12/24 12:40:17;;;;;;;14.48;3.53;;;;;;;6.19;60.13;100402.25;5095826;28;20052;-91
2021/12/24 12:42:57;;;;;;;8.55;2.67;;;;;;;6.17;59.67;100409.22;5094980;28;20379;-90
2021/12/24 12:45:34;;;;;;;7.10;2.20;;;;;;;6.26;61.31;100406.41;5093975;28;20081;-90
2021/12/24 12:48:08;;;;;;;8.77;2.67;;;;;;;6.19;62.97;100376.25;5093450;28;20083;-91
2021/12/24 12:50:39;;;;;;;11.90;2.55;;;;;;;6.43;63.24;100396.44;5092117;28;20056;-91
2021/12/24 12:53:22;;;;;;;9.93;2.40;;;;;;;6.31;62.43;100406.28;5090375;28;20058;-90
2021/12/24 12:56:15;;;;;;;12.45;2.78;;;;;;;6.26;61.84;100385.59;5074991;28;20401;-90
2021/12/24 12:58:55;;;;;;;13.50;4.72;;;;;;;6.24;61.51;100396.03;5103934;28;20070;-90
2021/12/24 13:01:23;;;;;;;9.27;2.13;;;;;;;6.22;59.65;100395.22;5095174;28;20405;-90
2021/12/24 13:03:56;;;;;;;12.43;2.80;;;;;;;6.48;60.57;100401.53;5095143;28;20101;-90
2021/12/24 13:06:45;;;;;;;17.55;3.30;;;;;;;6.26;59.73;100357.00;5094652;28;20050;-89
2021/12/24 13:09:16;;;;;;;10.32;2.65;;;;;;;6.54;60.79;100377.09;5087168;28;20055;-90
2021/12/24 13:11:49;;;;;;;10.45;3.17;;;;;;;6.44;58.41;100384.28;5096650;28;20039;-91
2021/12/24 13:14:17;;;;;;;8.55;2.50;;;;;;;6.52;59.43;100378.88;5071077;28;20041;-90
2021/12/24 13:17:26;;;;;;;8.30;1.90;;;;;;;6.60;55.94;100369.94;5090678;28;20079;-89
2021/12/24 13:22:28;;;;;;;9.63;2.20;;;;;;;6.40;57.09;100361.84;5073533;28;20052;-89
2021/12/24 13:25:05;;;;;;;6.95;2.15;;;;;;;6.64;57.78;100376.81;5056167;28;20086;-89